NCAR-RAP Real-Time Weather Data

Output produced by METARs form (12 May 2021  12:27 UTC)
found at http://weather.rap.ucar.edu/surface/
 
KSLE 121156Z AUTO 00000KT 10SM CLR 09/06 A3008 RMK AO2 SLP187 T00940056 10161 20083 56000
KSLE 121056Z AUTO 29003KT 10SM CLR 10/06 A3009 RMK AO2 SLP188 T01000061
KSLE 120956Z AUTO 13003KT 10SM CLR 11/07 A3008 RMK AO2 SLP186 T01060067
KSLE 120856Z AUTO 34003KT 10SM CLR 13/07 A3008 RMK AO2 SLP187 T01280067 56004
KSLE 120756Z AUTO 30003KT 10SM CLR 13/07 A3009 RMK AO2 SLP188 T01280067 402500067
KSLE 120656Z AUTO 16003KT 10SM CLR 13/07 A3008 RMK AO2 SLP187 T01330067
KSLE 120556Z AUTO 35005KT 10SM CLR 15/07 A3010 RMK AO2 SLP191 T01500072 10250 20150 52010
KSLE 120456Z AUTO 36007KT 10SM CLR 16/07 A3009 RMK AO2 SLP187 T01610072
KSLE 120356Z AUTO 34006KT 10SM CLR 17/07 A3008 RMK AO2 SLP184 T01720072
KSLE 120256Z 03008KT 10SM CLR 22/03 A3006 RMK AO2 SLP180 T02170033 56005
KSLE 120156Z 01010KT 10SM CLR 23/03 A3006 RMK AO2 SLP180 T02330033
KSLE 120056Z 02012KT 10SM CLR 24/03 A3007 RMK AO2 SLP184 T02390033
KSLE 112356Z 36009KT 10SM CLR 24/04 A3008 RMK AO2 SLP186 T02440044 10244 20167 58015